Time;durP1;ratioP1;P1;durP2;ratioP2;P2;SDS_P1;SDS_P2;PMS_P1;PMS_P2;Temp;Humidity;BMP_temperature;BMP_pressure;BME280_temperature;BME280_humidity;BME280_pressure;Samples;Min_cycle;Max_cycle;Signal;HPM_P1;HPM_P2
2023/09/15 00:01:40;;;;;;;11.00;3.73;;;12.00;99.90;;;;;;4994569;28;20038;-73
2023/09/15 00:04:06;;;;;;;10.05;3.63;;;11.90;99.90;;;;;;4978508;28;20034;-73
2023/09/15 00:06:34;;;;;;;9.30;3.60;;;11.80;99.90;;;;;;4994070;28;20038;-73
2023/09/15 00:09:14;;;;;;;8.43;3.77;;;11.80;99.90;;;;;;4978349;28;20092;-72
2023/09/15 00:11:40;;;;;;;8.95;4.00;;;11.80;99.90;;;;;;4977899;28;20293;-72
2023/09/15 00:14:13;;;;;;;7.80;3.38;;;11.70;99.90;;;;;;4993954;28;20042;-70
2023/09/15 00:16:40;;;;;;;9.05;3.33;;;11.60;99.90;;;;;;4993834;28;20491;-73
2023/09/15 00:19:13;;;;;;;8.10;3.53;;;11.60;99.90;;;;;;5010461;28;20042;-72
2023/09/15 00:21:40;;;;;;;6.97;2.75;;;11.60;99.90;;;;;;4994178;28;20399;-72
2023/09/15 00:24:08;;;;;;;6.05;3.08;;;11.60;99.90;;;;;;4993974;28;20439;-71
2023/09/15 00:26:34;;;;;;;6.15;2.55;;;11.50;99.90;;;;;;4993589;28;20046;-71
2023/09/15 00:29:01;;;;;;;5.85;2.50;;;11.50;99.90;;;;;;4993460;28;20133;-71
2023/09/15 00:31:28;;;;;;;6.03;2.50;;;11.60;99.90;;;;;;4993456;28;20050;-71
2023/09/15 00:33:54;;;;;;;5.43;2.10;;;11.60;99.90;;;;;;4994837;28;20042;-71
2023/09/15 00:36:22;;;;;;;7.68;3.15;;;11.60;99.90;;;;;;4993256;28;20546;-72
2023/09/15 00:38:49;;;;;;;7.35;2.55;;;11.60;99.90;;;;;;4993548;28;20049;-73
2023/09/15 00:41:14;;;;;;;6.22;2.50;;;11.70;99.90;;;;;;4993207;28;20388;-72
2023/09/15 00:43:53;;;;;;;8.63;3.08;;;11.70;99.90;;;;;;4993612;28;20072;-72
2023/09/15 00:46:19;;;;;;;7.13;2.90;;;11.70;99.90;;;;;;4962220;28;20057;-70
2023/09/15 00:48:49;;;;;;;7.60;2.70;;;11.70;99.90;;;;;;4977125;28;20395;-73
2023/09/15 00:51:22;;;;;;;7.47;3.38;;;11.70;99.90;;;;;;4977086;28;20045;-71
2023/09/15 00:53:49;;;;;;;11.18;3.15;;;11.80;99.90;;;;;;4961104;28;20112;-71
2023/09/15 00:56:24;;;;;;;7.45;3.33;;;11.70;99.90;;;;;;4993001;28;20137;-72
2023/09/15 00:58:50;;;;;;;8.27;2.90;;;11.60;99.90;;;;;;5009566;28;20046;-72
2023/09/15 01:01:16;;;;;;;7.07;2.80;;;11.60;99.90;;;;;;4993290;28;20168;-69
2023/09/15 01:03:47;;;;;;;6.35;2.58;;;11.50;99.90;;;;;;5009435;28;20042;-72
2023/09/15 01:06:22;;;;;;;5.38;2.40;;;11.50;99.90;;;;;;4992144;28;20509;-71
2023/09/15 01:08:48;;;;;;;5.57;2.50;;;11.60;99.90;;;;;;4993042;28;20050;-71
2023/09/15 01:11:17;;;;;;;6.32;2.70;;;11.60;99.90;;;;;;4977030;28;20048;-73
2023/09/15 01:13:50;;;;;;;7.18;3.08;;;11.70;99.90;;;;;;4993192;28;20074;-71
2023/09/15 01:16:28;;;;;;;7.78;3.30;;;11.70;99.90;;;;;;4977099;28;20403;-72
2023/09/15 01:19:27;;;;;;;9.80;3.53;;;11.60;99.90;;;;;;5009445;28;20055;-70
2023/09/15 01:22:49;;;;;;;5.25;2.30;;;11.50;99.90;;;;;;4992826;28;20038;-71
2023/09/15 01:25:33;;;;;;;7.97;2.67;;;11.50;99.90;;;;;;5009257;28;20042;-69
2023/09/15 01:28:22;;;;;;;7.20;2.63;;;11.50;99.90;;;;;;4992748;28;20047;-71
2023/09/15 01:30:50;;;;;;;6.28;2.50;;;11.50;99.90;;;;;;4993256;28;20077;-71
2023/09/15 01:33:21;;;;;;;5.93;2.65;;;11.50;99.90;;;;;;4993225;28;20054;-72
2023/09/15 01:35:47;;;;;;;5.85;2.47;;;11.50;99.90;;;;;;5009200;28;20042;-72
2023/09/15 01:38:16;;;;;;;5.60;2.60;;;11.50;99.90;;;;;;4977020;28;20133;-73
2023/09/15 01:40:48;;;;;;;8.38;2.63;;;11.60;99.90;;;;;;4988846;28;20054;-72
2023/09/15 01:43:14;;;;;;;6.75;2.80;;;11.60;99.90;;;;;;4976986;28;20081;-72
2023/09/15 01:45:39;;;;;;;6.25;2.70;;;11.60;99.90;;;;;;4994497;28;20054;-70
2023/09/15 01:48:06;;;;;;;5.53;2.13;;;11.60;99.90;;;;;;4992943;28;20108;-71
2023/09/15 01:50:33;;;;;;;8.70;2.60;;;11.60;99.90;;;;;;4993477;28;20042;-71
2023/09/15 01:52:59;;;;;;;5.60;2.65;;;11.60;99.90;;;;;;4994882;28;20065;-69
2023/09/15 01:55:26;;;;;;;5.82;2.30;;;11.60;99.90;;;;;;4994944;28;20083;-70
2023/09/15 01:57:53;;;;;;;5.97;2.38;;;11.60;99.90;;;;;;4993036;28;20050;-72
2023/09/15 02:00:18;;;;;;;4.95;2.50;;;11.70;99.90;;;;;;4977504;28;20050;-71
2023/09/15 02:02:44;;;;;;;7.70;3.15;;;11.70;99.90;;;;;;4993670;28;20045;-71
2023/09/15 02:05:23;;;;;;;6.57;2.75;;;11.60;99.90;;;;;;4977398;28;20050;-72
2023/09/15 02:07:48;;;;;;;5.45;2.47;;;11.50;99.90;;;;;;4976379;28;20046;-72
2023/09/15 02:10:14;;;;;;;6.90;3.28;;;11.50;99.90;;;;;;4976351;28;20069;-71
2023/09/15 02:12:40;;;;;;;8.35;3.95;;;11.50;99.90;;;;;;4992028;28;20061;-65
2023/09/15 02:15:07;;;;;;;8.13;2.95;;;11.50;99.90;;;;;;4975717;28;20034;-65
2023/09/15 02:17:33;;;;;;;9.98;5.00;;;11.40;99.90;;;;;;4993711;28;20137;-64
2023/09/15 02:19:58;;;;;;;8.57;4.10;;;11.30;99.90;;;;;;4996039;28;20073;-64
2023/09/15 02:22:26;;;;;;;8.07;3.60;;;11.10;99.90;;;;;;5011692;28;20093;-65
2023/09/15 02:24:52;;;;;;;12.05;5.50;;;11.10;99.90;;;;;;4996905;28;20125;-65
2023/09/15 02:27:18;;;;;;;12.13;4.80;;;11.00;99.90;;;;;;4979469;28;20562;-64
2023/09/15 02:29:44;;;;;;;9.68;4.32;;;10.80;99.90;;;;;;4996557;28;20074;-65
2023/09/15 02:32:09;;;;;;;8.10;3.33;;;10.80;99.90;;;;;;5011683;28;20118;-66
2023/09/15 02:34:35;;;;;;;6.68;2.70;;;10.80;99.90;;;;;;4979269;28;20398;-64
2023/09/15 02:37:01;;;;;;;5.32;2.72;;;10.80;99.90;;;;;;4995466;28;20042;-65
2023/09/15 02:39:27;;;;;;;7.60;2.55;;;10.90;99.90;;;;;;5011424;28;20047;-64
2023/09/15 02:41:53;;;;;;;6.75;2.78;;;10.90;99.90;;;;;;4995335;28;20109;-65
2023/09/15 02:44:19;;;;;;;5.88;2.63;;;10.90;99.90;;;;;;4996305;28;20058;-64
2023/09/15 02:46:45;;;;;;;5.22;2.40;;;10.90;99.90;;;;;;4995044;28;20057;-64
2023/09/15 02:49:10;;;;;;;7.63;3.28;;;11.00;99.90;;;;;;4995110;28;20050;-64
2023/09/15 02:51:37;;;;;;;6.75;2.90;;;11.00;99.90;;;;;;4995143;28;20050;-64
2023/09/15 02:54:03;;;;;;;6.63;2.70;;;11.00;99.90;;;;;;4995101;28;20132;-64
2023/09/15 02:56:29;;;;;;;7.00;2.60;;;11.00;99.90;;;;;;4994915;28;20117;-65
2023/09/15 02:58:55;;;;;;;6.40;2.40;;;11.00;99.90;;;;;;4979079;28;20128;-64
2023/09/15 03:01:21;;;;;;;6.60;2.80;;;11.00;99.90;;;;;;4995161;28;20506;-65
2023/09/15 03:03:49;;;;;;;6.05;2.60;;;11.00;99.90;;;;;;4994881;28;20034;-64
2023/09/15 03:06:15;;;;;;;6.30;2.70;;;11.00;99.90;;;;;;4994762;28;20050;-65
2023/09/15 03:08:41;;;;;;;5.78;2.50;;;11.00;99.90;;;;;;4994710;28;20060;-65
2023/09/15 03:11:17;;;;;;;5.82;2.50;;;11.00;99.90;;;;;;4978447;28;20434;-65
2023/09/15 03:13:42;;;;;;;6.70;2.42;;;11.00;99.90;;;;;;4995687;28;20053;-64
2023/09/15 03:16:10;;;;;;;8.65;3.90;;;11.00;99.90;;;;;;4995762;28;20043;-65
2023/09/15 03:18:36;;;;;;;7.13;3.67;;;10.90;99.90;;;;;;4996016;28;20050;-63
2023/09/15 03:21:03;;;;;;;5.88;2.75;;;10.90;99.90;;;;;;4994559;28;20057;-71
2023/09/15 03:23:29;;;;;;;6.82;2.95;;;10.90;99.90;;;;;;4994940;28;20042;-70
2023/09/15 03:25:59;;;;;;;5.22;2.70;;;10.90;99.90;;;;;;4994514;28;20150;-70
2023/09/15 03:28:25;;;;;;;5.47;2.50;;;10.90;99.90;;;;;;4977559;28;20048;-71
2023/09/15 03:30:51;;;;;;;6.75;2.70;;;10.90;99.90;;;;;;4995738;28;20144;-71
2023/09/15 03:33:17;;;;;;;5.93;2.72;;;10.80;99.90;;;;;;4978366;28;20061;-73
2023/09/15 03:35:43;;;;;;;6.97;2.55;;;10.80;99.90;;;;;;4978321;28;20050;-71
2023/09/15 03:38:09;;;;;;;7.72;3.00;;;10.80;99.90;;;;;;4994288;28;20051;-71
2023/09/15 03:40:35;;;;;;;6.05;2.38;;;10.80;99.90;;;;;;4978015;28;20041;-71
2023/09/15 03:43:02;;;;;;;9.40;3.78;;;10.80;99.90;;;;;;4994345;28;20395;-70
2023/09/15 03:45:29;;;;;;;6.57;2.70;;;10.80;99.90;;;;;;4995249;28;20061;-71
2023/09/15 03:47:54;;;;;;;6.78;2.60;;;10.70;99.90;;;;;;4978147;28;20046;-69
2023/09/15 03:50:27;;;;;;;5.30;2.50;;;10.70;99.90;;;;;;4994039;28;20050;-70
2023/09/15 03:52:53;;;;;;;5.50;2.50;;;10.70;99.90;;;;;;4994062;28;20042;-70
2023/09/15 03:55:19;;;;;;;6.80;3.10;;;10.70;99.90;;;;;;4995415;28;20368;-71
2023/09/15 03:57:44;;;;;;;6.10;2.50;;;10.70;99.90;;;;;;4978092;28;20039;-71
2023/09/15 04:00:17;;;;;;;5.35;2.50;;;10.70;99.90;;;;;;4994230;28;20042;-71
2023/09/15 04:02:44;;;;;;;6.93;2.75;;;10.70;99.90;;;;;;4977661;28;20177;-72
2023/09/15 04:05:10;;;;;;;5.65;2.40;;;10.70;99.90;;;;;;4993781;28;20042;-70
2023/09/15 04:07:38;;;;;;;6.70;2.58;;;10.70;99.90;;;;;;4977697;28;20483;-70
2023/09/15 04:10:05;;;;;;;6.38;2.55;;;10.70;99.90;;;;;;4994267;28;20549;-72
2023/09/15 04:12:32;;;;;;;7.10;2.60;;;10.70;99.90;;;;;;4993506;28;20050;-71
2023/09/15 04:14:59;;;;;;;5.90;2.60;;;10.70;99.90;;;;;;4993522;28;20042;-71
2023/09/15 04:17:32;;;;;;;6.18;2.40;;;10.70;99.90;;;;;;4977527;28;20050;-70
2023/09/15 04:19:58;;;;;;;8.48;3.65;;;10.60;99.90;;;;;;4977520;28;20558;-72
2023/09/15 04:22:31;;;;;;;8.65;4.40;;;10.60;99.90;;;;;;4995076;28;20049;-70
2023/09/15 04:25:00;;;;;;;8.15;3.95;;;10.50;99.90;;;;;;4977680;28;20499;-70
2023/09/15 04:27:26;;;;;;;6.40;2.75;;;10.50;99.90;;;;;;4993205;28;20087;-70
2023/09/15 04:29:56;;;;;;;5.32;2.30;;;10.50;99.90;;;;;;4993338;28;20072;-71
2023/09/15 04:32:23;;;;;;;5.72;2.40;;;10.50;99.90;;;;;;4977559;28;20049;-65
2023/09/15 04:34:52;;;;;;;6.10;2.70;;;10.50;99.90;;;;;;4994674;28;20038;-65
2023/09/15 04:37:18;;;;;;;7.88;4.32;;;10.50;99.90;;;;;;4976780;28;20084;-65
2023/09/15 04:40:01;;;;;;;7.97;4.38;;;10.50;99.90;;;;;;4994412;28;20073;-66
2023/09/15 04:42:26;;;;;;;;;;;10.40;99.90;;;;;;4977154;28;20117;-64
2023/09/15 04:44:55;;;;;;;7.80;3.97;;;10.40;99.90;;;;;;4994575;28;20009;-65
2023/09/15 04:47:35;;;;;;;7.78;3.92;;;10.30;99.90;;;;;;4976842;28;20042;-64
2023/09/15 04:50:06;;;;;;;8.10;4.93;;;10.20;99.90;;;;;;5009501;28;20130;-64
2023/09/15 04:52:40;;;;;;;8.07;4.03;;;10.10;99.90;;;;;;4977720;28;20034;-65
2023/09/15 04:55:06;;;;;;;13.40;6.40;;;10.10;99.90;;;;;;4993030;28;20046;-64
2023/09/15 04:57:33;;;;;;;10.48;6.40;;;10.00;99.90;;;;;;5009351;28;20053;-64
2023/09/15 04:59:59;;;;;;;10.82;6.05;;;9.90;99.90;;;;;;4976858;28;20117;-66
2023/09/15 05:02:26;;;;;;;10.80;6.65;;;9.80;99.90;;;;;;4992840;28;20042;-67
2023/09/15 05:04:55;;;;;;;14.55;7.72;;;9.70;99.90;;;;;;4960823;28;20100;-64
2023/09/15 05:07:21;;;;;;;10.63;5.93;;;9.70;99.90;;;;;;4976776;28;20081;-65
2023/09/15 05:09:47;;;;;;;7.35;3.95;;;9.60;99.90;;;;;;4992736;28;20113;-68
2023/09/15 05:12:16;;;;;;;10.20;6.95;;;9.50;99.90;;;;;;4976697;28;20445;-66
2023/09/15 05:14:45;;;;;;;11.60;6.80;;;9.50;99.90;;;;;;4975907;28;20141;-65
2023/09/15 05:17:11;;;;;;;12.35;7.55;;;9.50;99.90;;;;;;4976199;28;20035;-68
2023/09/15 05:19:37;;;;;;;9.82;6.72;;;9.40;99.90;;;;;;4994147;28;20035;-70
2023/09/15 05:22:05;;;;;;;7.75;5.35;;;9.40;99.90;;;;;;4994116;28;20073;-65
2023/09/15 05:24:33;;;;;;;8.13;4.00;;;9.40;99.90;;;;;;4992531;28;20044;-65
2023/09/15 05:26:59;;;;;;;12.30;7.32;;;9.40;99.90;;;;;;4976400;28;20129;-65
2023/09/15 05:29:28;;;;;;;9.98;6.10;;;9.40;99.90;;;;;;4993892;28;20121;-65
2023/09/15 05:32:00;;;;;;;10.88;4.70;;;9.40;99.90;;;;;;4962175;28;20120;-66
2023/09/15 05:34:26;;;;;;;11.98;6.20;;;9.50;99.90;;;;;;4992639;28;20050;-66
2023/09/15 05:36:52;;;;;;;7.57;4.65;;;9.50;99.90;;;;;;5008795;28;20049;-67
2023/09/15 05:39:18;;;;;;;8.77;4.53;;;9.60;99.90;;;;;;5008979;28;20051;-65
2023/09/15 05:41:44;;;;;;;6.78;4.07;;;9.60;99.90;;;;;;4976383;28;20042;-64
2023/09/15 05:44:10;;;;;;;7.80;5.28;;;9.70;99.90;;;;;;4992181;28;20383;-65
2023/09/15 05:46:48;;;;;;;7.32;3.65;;;9.70;99.90;;;;;;4992340;28;20177;-65
2023/09/15 05:49:14;;;;;;;8.07;4.60;;;9.70;99.90;;;;;;4976070;28;20082;-65
2023/09/15 05:51:42;;;;;;;6.57;3.70;;;9.80;99.90;;;;;;5009151;28;20077;-66
2023/09/15 05:54:08;;;;;;;7.47;3.60;;;9.80;99.90;;;;;;4980431;28;20487;-63
2023/09/15 05:56:47;;;;;;;6.30;3.40;;;9.90;99.90;;;;;;4979921;28;20045;-64
2023/09/15 05:59:15;;;;;;;9.73;4.97;;;9.90;99.90;;;;;;4981819;28;20046;-65
2023/09/15 06:01:46;;;;;;;7.35;4.15;;;10.00;99.90;;;;;;4996292;28;20290;-65
2023/09/15 06:04:13;;;;;;;8.20;4.32;;;10.00;99.90;;;;;;4997229;28;20411;-64
2023/09/15 06:06:39;;;;;;;7.85;4.68;;;10.00;99.90;;;;;;4979804;28;20050;-65
2023/09/15 06:09:05;;;;;;;10.35;6.05;;;10.00;99.90;;;;;;4995777;28;20116;-65
2023/09/15 06:11:31;;;;;;;7.75;5.63;;;10.00;99.90;;;;;;4996965;28;20046;-65
2023/09/15 06:13:56;;;;;;;10.15;6.47;;;10.10;99.90;;;;;;4996222;28;20446;-65
2023/09/15 06:16:22;;;;;;;11.50;6.82;;;10.30;99.90;;;;;;4995600;28;20038;-66
2023/09/15 06:18:56;;;;;;;11.45;6.72;;;10.30;99.90;;;;;;4995984;28;20069;-66
2023/09/15 06:21:21;;;;;;;14.68;8.13;;;10.60;99.90;;;;;;4995906;28;20046;-65
2023/09/15 06:23:47;;;;;;;10.45;6.15;;;11.00;99.90;;;;;;4995527;28;20384;-65
2023/09/15 06:26:13;;;;;;;11.77;6.13;;;11.50;99.90;;;;;;4979704;28;20133;-65
2023/09/15 06:28:39;;;;;;;10.18;5.95;;;12.00;99.90;;;;;;4979711;28;20490;-64
2023/09/15 06:31:05;;;;;;;9.18;5.60;;;12.40;99.90;;;;;;4979588;28;20133;-65
2023/09/15 06:33:31;;;;;;;9.07;5.50;;;12.90;99.90;;;;;;4995328;28;20050;-64
2023/09/15 06:35:57;;;;;;;9.23;5.00;;;13.30;99.90;;;;;;4996544;28;20449;-64
2023/09/15 06:38:23;;;;;;;9.93;5.35;;;13.60;99.90;;;;;;5011592;28;20046;-64
2023/09/15 06:40:51;;;;;;;9.45;5.20;;;13.90;99.90;;;;;;4995349;28;20049;-64
2023/09/15 06:43:17;;;;;;;10.00;4.97;;;14.20;99.90;;;;;;5011640;28;20487;-64
2023/09/15 06:45:43;;;;;;;12.13;5.40;;;14.50;99.90;;;;;;4995168;28;20057;-64
2023/09/15 06:48:08;;;;;;;9.70;5.38;;;14.60;99.90;;;;;;4995324;28;20034;-64
2023/09/15 06:50:34;;;;;;;10.15;4.78;;;14.70;99.90;;;;;;4979059;28;20050;-65
2023/09/15 06:53:00;;;;;;;12.02;5.28;;;15.00;99.90;;;;;;4995214;28;20050;-65
2023/09/15 06:55:26;;;;;;;12.55;5.10;;;15.00;99.90;;;;;;4996457;28;20379;-65
2023/09/15 06:57:52;;;;;;;9.15;5.05;;;15.20;99.90;;;;;;4979164;28;20050;-65
2023/09/15 07:00:18;;;;;;;10.27;5.45;;;15.20;99.90;;;;;;4995332;28;20038;-65
2023/09/15 07:02:44;;;;;;;9.57;5.20;;;15.20;99.90;;;;;;4996356;28;20122;-65
2023/09/15 07:05:12;;;;;;;10.40;5.20;;;15.20;99.90;;;;;;4994927;28;20550;-65
2023/09/15 07:07:38;;;;;;;8.82;5.00;;;15.30;99.90;;;;;;5011058;28;20038;-65
2023/09/15 07:10:04;;;;;;;8.60;5.03;;;15.30;99.90;;;;;;4994830;28;20064;-64
2023/09/15 07:12:33;;;;;;;9.05;5.00;;;15.20;99.90;;;;;;4994629;28;20042;-65
2023/09/15 07:15:03;;;;;;;9.13;4.80;;;15.30;99.90;;;;;;4994923;28;20065;-65
2023/09/15 07:17:29;;;;;;;9.88;4.85;;;15.50;99.90;;;;;;4994798;28;20487;-65
2023/09/15 07:19:54;;;;;;;9.50;5.45;;;15.60;99.90;;;;;;4978711;28;20042;-64
2023/09/15 07:22:20;;;;;;;10.73;4.78;;;15.60;99.90;;;;;;4996151;28;20076;-64
2023/09/15 07:24:46;;;;;;;11.18;5.55;;;15.60;99.90;;;;;;4994546;28;20483;-64
2023/09/15 07:27:12;;;;;;;10.25;5.20;;;15.90;99.90;;;;;;4994339;28;20057;-65
2023/09/15 07:29:38;;;;;;;11.27;5.55;;;16.00;99.90;;;;;;4962159;28;20537;-64
2023/09/15 07:32:05;;;;;;;8.73;5.03;;;15.70;99.90;;;;;;4994484;28;20446;-65
2023/09/15 07:34:31;;;;;;;9.68;4.88;;;15.80;99.90;;;;;;4994467;28;20057;-66
2023/09/15 07:36:57;;;;;;;10.80;5.10;;;15.80;99.90;;;;;;4995480;28;20162;-65
2023/09/15 07:39:23;;;;;;;11.13;5.65;;;15.90;99.90;;;;;;4978302;28;20034;-64
2023/09/15 07:41:49;;;;;;;11.20;5.60;;;15.70;99.90;;;;;;4994165;28;20042;-64
2023/09/15 07:44:15;;;;;;;8.15;5.03;;;15.50;99.90;;;;;;4977852;28;20060;-65
2023/09/15 07:46:47;;;;;;;12.18;5.63;;;15.40;99.90;;;;;;4994094;28;20136;-65
2023/09/15 07:49:13;;;;;;;;;;;15.40;99.90;;;;;;4962432;28;20085;-66
2023/09/15 07:51:39;;;;;;;10.18;5.50;;;15.40;99.90;;;;;;4978008;28;20098;-65
2023/09/15 07:54:05;;;;;;;9.57;5.18;;;15.30;99.90;;;;;;4977799;28;20124;-64
2023/09/15 07:56:30;;;;;;;10.15;5.95;;;15.30;99.90;;;;;;4993755;28;20043;-64
2023/09/15 07:58:56;;;;;;;9.50;5.65;;;15.30;99.90;;;;;;4994092;28;20495;-66
2023/09/15 08:01:25;;;;;;;10.93;5.40;;;15.30;99.90;;;;;;4993917;28;20062;-66
2023/09/15 08:03:51;;;;;;;12.23;6.07;;;15.30;99.90;;;;;;4993934;28;20042;-65
2023/09/15 08:06:17;;;;;;;12.18;5.47;;;15.20;99.90;;;;;;4995344;28;20042;-66
2023/09/15 08:08:43;;;;;;;9.88;5.13;;;15.20;99.90;;;;;;4977530;28;20049;-64
2023/09/15 08:11:09;;;;;;;13.60;5.60;;;15.30;99.90;;;;;;4993657;28;20395;-65
2023/09/15 08:13:35;;;;;;;10.38;5.75;;;15.30;99.90;;;;;;4961688;28;20042;-65
2023/09/15 08:16:01;;;;;;;10.00;5.80;;;15.30;99.90;;;;;;4976819;28;20038;-65
2023/09/15 08:18:28;;;;;;;12.40;5.70;;;15.30;99.90;;;;;;4961574;28;20117;-64
2023/09/15 08:20:54;;;;;;;10.75;5.70;;;15.30;99.90;;;;;;4993735;28;20053;-65
2023/09/15 08:23:19;;;;;;;10.77;5.40;;;15.30;99.90;;;;;;4977234;28;20038;-66
2023/09/15 08:25:45;;;;;;;9.40;5.45;;;15.50;99.90;;;;;;4993644;28;20058;-65
2023/09/15 08:28:11;;;;;;;12.18;5.70;;;15.70;99.90;;;;;;4994942;28;20451;-65
2023/09/15 08:30:37;;;;;;;10.52;4.97;;;15.90;99.90;;;;;;4994659;28;20479;-64
2023/09/15 08:33:03;;;;;;;9.50;5.18;;;16.00;99.90;;;;;;4993466;28;20036;-65
2023/09/15 08:35:30;;;;;;;9.40;4.53;;;16.10;99.90;;;;;;4993522;28;20092;-65
2023/09/15 08:37:56;;;;;;;8.48;4.35;;;16.30;99.90;;;;;;4977228;28;20134;-65
2023/09/15 08:40:21;;;;;;;9.68;4.90;;;16.50;99.90;;;;;;5009682;28;20125;-66
2023/09/15 08:42:48;;;;;;;10.98;4.75;;;16.80;99.90;;;;;;4994291;28;20077;-64
2023/09/15 08:45:14;;;;;;;8.75;4.35;;;16.80;99.90;;;;;;4994580;28;20129;-65
2023/09/15 08:47:45;;;;;;;9.85;4.80;;;17.00;99.90;;;;;;4993483;28;20092;-65
2023/09/15 08:50:23;;;;;;;7.57;4.10;;;17.20;99.90;;;;;;4993062;28;20132;-65
2023/09/15 08:52:50;;;;;;;8.52;4.00;;;17.40;99.90;;;;;;5009407;28;20407;-65
2023/09/15 08:55:16;;;;;;;9.27;4.50;;;17.70;99.90;;;;;;5009270;28;20042;-65
2023/09/15 08:57:43;;;;;;;10.40;4.18;;;17.80;99.90;;;;;;4992973;28;20063;-65
2023/09/15 09:00:09;;;;;;;10.85;4.10;;;17.80;99.90;;;;;;4993210;28;20051;-63
2023/09/15 09:02:35;;;;;;;9.80;4.00;;;17.90;99.90;;;;;;4992697;28;20065;-65
2023/09/15 09:05:01;;;;;;;9.48;3.70;;;18.20;99.90;;;;;;4992913;28;20046;-65
2023/09/15 09:07:27;;;;;;;11.20;3.70;;;18.60;99.90;;;;;;4992927;28;20045;-64
2023/09/15 09:09:54;;;;;;;8.65;3.40;;;18.40;99.90;;;;;;4993076;28;20117;-65
2023/09/15 09:12:21;;;;;;;8.75;3.40;;;18.70;99.90;;;;;;4993943;28;20041;-71
2023/09/15 09:14:46;;;;;;;9.85;3.30;;;18.90;99.90;;;;;;4992680;28;20125;-72
2023/09/15 09:17:18;;;;;;;8.75;3.50;;;19.30;99.90;;;;;;4977201;28;20049;-72
2023/09/15 09:19:46;;;;;;;9.13;3.28;;;19.40;99.90;;;;;;4993042;28;20042;-71
2023/09/15 09:22:17;;;;;;;7.80;3.20;;;19.70;99.90;;;;;;4961135;28;20034;-72
2023/09/15 09:24:43;;;;;;;6.90;3.15;;;19.90;99.90;;;;;;4992993;28;20129;-72
2023/09/15 09:27:10;;;;;;;6.88;3.10;;;19.80;99.90;;;;;;4994198;28;20050;-71
2023/09/15 09:29:36;;;;;;;9.88;3.50;;;20.00;99.90;;;;;;4980574;28;20124;-71
2023/09/15 09:32:04;;;;;;;7.80;2.97;;;19.90;99.90;;;;;;4980909;28;20084;-71
2023/09/15 09:34:30;;;;;;;7.38;3.08;;;19.80;99.90;;;;;;4996939;28;20047;-70
2023/09/15 09:36:56;;;;;;;7.90;3.28;;;19.80;99.90;;;;;;4980444;28;20084;-72
2023/09/15 09:39:21;;;;;;;8.80;3.78;;;20.10;99.90;;;;;;4996820;28;20051;-70
2023/09/15 09:41:48;;;;;;;8.48;3.92;;;19.90;99.90;;;;;;4980216;28;20503;-71
2023/09/15 09:44:14;;;;;;;7.82;3.72;;;19.80;99.40;;;;;;4964436;28;20085;-70
2023/09/15 09:46:41;;;;;;;9.75;3.88;;;19.80;99.60;;;;;;4980521;28;20073;-71
2023/09/15 09:49:07;;;;;;;8.38;3.58;;;20.10;99.60;;;;;;4996342;28;20046;-70
2023/09/15 09:51:35;;;;;;;8.50;3.28;;;20.30;99.20;;;;;;4997502;28;20046;-71
2023/09/15 09:54:02;;;;;;;9.65;3.20;;;20.40;98.10;;;;;;4997741;28;20034;-71
2023/09/15 09:56:35;;;;;;;8.13;3.42;;;20.50;99.10;;;;;;5012636;28;20038;-70
2023/09/15 09:59:09;;;;;;;9.75;3.55;;;20.70;97.90;;;;;;4996671;28;20054;-71
2023/09/15 10:01:36;;;;;;;7.35;3.50;;;20.90;98.50;;;;;;4996137;28;20076;-70
2023/09/15 10:04:05;;;;;;;9.75;3.30;;;20.80;97.90;;;;;;4996260;28;20125;-72
2023/09/15 10:06:33;;;;;;;7.95;2.75;;;20.80;98.20;;;;;;4997103;28;20052;-72
2023/09/15 10:08:59;;;;;;;7.38;3.00;;;20.80;98.60;;;;;;5012636;28;20495;-70
2023/09/15 10:11:27;;;;;;;7.55;2.70;;;20.70;97.10;;;;;;4996372;28;20398;-72
2023/09/15 10:13:54;;;;;;;7.95;3.20;;;20.90;96.50;;;;;;4979891;28;20137;-72
2023/09/15 10:16:21;;;;;;;7.68;2.97;;;20.90;95.40;;;;;;4995749;28;20121;-71
2023/09/15 10:18:47;;;;;;;9.38;3.10;;;21.00;96.00;;;;;;4996261;28;20085;-71
2023/09/15 10:21:13;;;;;;;8.75;3.15;;;21.10;96.80;;;;;;4979842;28;20045;-71
2023/09/15 10:23:39;;;;;;;6.57;2.85;;;21.20;96.20;;;;;;4979765;28;20396;-71
2023/09/15 10:26:09;;;;;;;7.60;3.10;;;21.20;95.20;;;;;;4995868;28;20046;-71
2023/09/15 10:28:35;;;;;;;8.98;3.15;;;21.30;95.40;;;;;;4995459;28;20046;-71
2023/09/15 10:31:01;;;;;;;7.70;2.65;;;21.40;96.50;;;;;;5012041;28;20045;-72
2023/09/15 10:33:27;;;;;;;7.72;2.53;;;21.40;95.40;;;;;;5011868;28;20046;-72
2023/09/15 10:36:04;;;;;;;7.03;2.67;;;21.60;95.70;;;;;;5011695;28;20039;-72
2023/09/15 10:38:32;;;;;;;6.38;2.47;;;21.60;94.50;;;;;;4995254;28;20125;-71
2023/09/15 10:41:00;;;;;;;6.03;2.30;;;21.60;94.80;;;;;;4995313;28;20110;-70
2023/09/15 10:43:26;;;;;;;7.03;2.85;;;21.70;93.80;;;;;;4979111;28;20086;-70
2023/09/15 10:45:57;;;;;;;7.78;2.78;;;21.70;92.80;;;;;;4996985;28;20166;-72
2023/09/15 10:48:35;;;;;;;7.57;3.00;;;21.70;93.50;;;;;;4996484;28;20052;-71
2023/09/15 10:51:08;;;;;;;7.45;2.95;;;21.80;93.40;;;;;;4996655;28;20136;-70
2023/09/15 10:53:46;;;;;;;8.77;2.67;;;21.70;93.70;;;;;;4978762;28;20050;-71
2023/09/15 10:56:13;;;;;;;7.40;2.92;;;21.60;93.70;;;;;;4978671;28;20042;-71
2023/09/15 10:58:40;;;;;;;6.72;2.70;;;21.50;94.20;;;;;;4996171;28;20057;-71
2023/09/15 11:01:08;;;;;;;10.00;2.70;;;21.40;94.60;;;;;;5011258;28;20038;-71
2023/09/15 11:03:36;;;;;;;6.70;2.83;;;21.60;94.10;;;;;;4995236;28;20069;-71
2023/09/15 11:06:03;;;;;;;8.13;2.83;;;21.50;94.70;;;;;;4994769;28;20118;-71
2023/09/15 11:08:31;;;;;;;6.75;2.67;;;21.60;94.80;;;;;;5011213;28;20109;-69
2023/09/15 11:11:10;;;;;;;8.25;2.75;;;21.70;93.50;;;;;;4980165;28;20506;-70
2023/09/15 11:13:42;;;;;;;8.32;2.88;;;21.70;94.30;;;;;;5011149;28;20073;-70
2023/09/15 11:16:27;;;;;;;7.97;2.70;;;21.80;93.60;;;;;;4978821;28;20046;-70
2023/09/15 11:18:56;;;;;;;9.57;2.90;;;21.80;93.60;;;;;;4996215;28;20070;-71
2023/09/15 11:21:23;;;;;;;7.43;2.67;;;21.90;94.70;;;;;;4994923;28;20053;-70
2023/09/15 11:23:50;;;;;;;8.18;2.72;;;21.90;93.20;;;;;;4994863;28;20121;-71
2023/09/15 11:26:16;;;;;;;6.72;2.65;;;21.90;93.80;;;;;;4994613;28;20052;-70
2023/09/15 11:28:42;;;;;;;8.93;3.05;;;22.00;94.00;;;;;;5010994;28;20046;-71
2023/09/15 11:31:09;;;;;;;7.28;2.72;;;22.10;94.30;;;;;;4978837;28;20049;-65
2023/09/15 11:33:35;;;;;;;9.25;2.83;;;22.20;93.30;;;;;;4978415;28;20379;-66
2023/09/15 11:36:01;;;;;;;8.02;2.80;;;22.30;92.80;;;;;;4978480;28;20085;-65
2023/09/15 11:38:27;;;;;;;7.75;2.65;;;22.40;92.90;;;;;;4994199;28;20046;-65
2023/09/15 11:40:54;;;;;;;7.60;2.72;;;22.30;92.80;;;;;;4994516;28;20442;-65
2023/09/15 11:43:23;;;;;;;8.27;2.60;;;22.20;93.50;;;;;;4977684;28;20073;-65
2023/09/15 11:45:51;;;;;;;6.88;2.70;;;22.30;92.90;;;;;;4995230;28;20054;-65
2023/09/15 11:48:18;;;;;;;6.72;2.38;;;22.30;92.40;;;;;;4994190;28;20042;-66
2023/09/15 11:50:46;;;;;;;6.53;2.22;;;22.20;92.50;;;;;;4977303;28;20050;-66
2023/09/15 11:53:30;;;;;;;8.10;2.55;;;22.20;92.80;;;;;;5010234;28;20077;-66
2023/09/15 11:55:56;;;;;;;7.07;2.53;;;22.30;92.30;;;;;;4993783;28;20124;-65
2023/09/15 11:58:22;;;;;;;7.00;2.72;;;22.30;92.20;;;;;;5010212;28;20050;-66
2023/09/15 12:00:49;;;;;;;6.55;2.70;;;22.30;93.20;;;;;;4993792;28;20038;-65
2023/09/15 12:03:19;;;;;;;6.90;2.50;;;22.30;92.40;;;;;;5010303;28;20077;-66
2023/09/15 12:05:44;;;;;;;7.45;2.75;;;22.30;93.00;;;;;;4994046;28;20042;-66
2023/09/15 12:08:11;;;;;;;7.95;2.67;;;22.40;92.40;;;;;;4977454;28;20513;-66
2023/09/15 12:10:38;;;;;;;7.43;2.85;;;22.30;92.50;;;;;;4977487;28;20107;-66
2023/09/15 12:13:04;;;;;;;8.20;3.10;;;22.20;92.20;;;;;;4993811;28;20126;-65
2023/09/15 12:15:30;;;;;;;6.68;2.70;;;22.10;92.10;;;;;;5010038;28;20456;-65
2023/09/15 12:17:56;;;;;;;6.82;2.83;;;22.10;94.30;;;;;;4993740;28;20043;-65
2023/09/15 12:20:23;;;;;;;7.30;3.20;;;22.30;93.50;;;;;;4994873;28;20042;-65
2023/09/15 12:22:49;;;;;;;6.82;2.90;;;22.30;93.90;;;;;;4993700;28;20089;-65
2023/09/15 12:25:16;;;;;;;7.70;2.90;;;22.30;93.00;;;;;;4993507;28;20046;-65
2023/09/15 12:27:42;;;;;;;8.57;2.85;;;22.30;92.90;;;;;;4994814;28;20069;-65
2023/09/15 12:30:10;;;;;;;6.25;2.78;;;22.20;93.00;;;;;;4993153;28;20081;-65
2023/09/15 12:32:37;;;;;;;8.98;3.15;;;22.40;92.00;;;;;;4976836;28;20050;-66
2023/09/15 12:35:12;;;;;;;6.47;2.80;;;22.10;92.30;;;;;;4993136;28;20050;-66
2023/09/15 12:37:42;;;;;;;6.47;3.05;;;22.20;92.50;;;;;;4977310;28;20395;-64
2023/09/15 12:40:11;;;;;;;8.50;3.17;;;22.20;93.40;;;;;;4993579;28;20479;-64
2023/09/15 12:42:37;;;;;;;7.57;3.33;;;22.20;93.40;;;;;;4977320;28;20394;-71
2023/09/15 12:45:04;;;;;;;8.48;3.80;;;22.30;93.50;;;;;;4993051;28;20132;-71
2023/09/15 12:47:31;;;;;;;6.60;3.13;;;22.30;93.00;;;;;;4993290;28;20038;-71
2023/09/15 12:49:57;;;;;;;7.50;3.20;;;22.30;93.20;;;;;;4993105;28;20042;-71